KMLU/MLU METAR and TAF weather

Enter ICAO airport designator
Station Type Date Time Source
KMLU METAR 2019/02/20 22:53 UTC NOAA

KMLU 202253Z 33005KT 10SM CLR 13/06 A2997 RMK AO2 SLP147 T01330056


Station Type Date Time Source
KMLU Decoded METAR 2019/02/20 22:53 UTC NOAA

MONROE REGIONAL AIRPORT, LA, United States (KMLU) 32-31N 092-02W 29M
Feb 20, 2019 - 05:53 PM EST / 2019.02.20 2253 UTC
Wind: from the NNW (330 degrees) at 6 MPH (5 KT):0
Visibility: 10 mile(s):0
Sky conditions: clear
Temperature: 55.9 F (13.3 C)
Dew Point: 42.1 F (5.6 C)
Relative Humidity: 59%
Pressure (altimeter): 29.97 in. Hg (1014 hPa)
ob: KMLU 202253Z 33005KT 10SM CLR 13/06 A2997 RMK AO2 SLP147 T01330056
cycle: 23

Station Type Date Time Source
KMLU TAF 2019/02/20 18:45 UTC NOAA

TAF KMLU 201742Z 2018/2118 29010KT P6SM BKN012 OVC050
TEMPO 2019/2020 SCT012 BKN050
FM202000 30007KT P6SM SCT250
FM210000 VRB03KT P6SM BKN250
FM211500 06008KT 6SM -SHRA BKN035 BKN080 OVC150


Example: see airport list